createdAt,value
2017-10-06T00:01:48.887Z,61.40
2017-10-06T00:04:16.582Z,59.30
2017-10-06T00:06:44.338Z,60.70
2017-10-06T00:09:12.017Z,63.00
2017-10-06T00:11:39.709Z,59.30
2017-10-06T00:16:35.158Z,58.90
2017-10-06T00:19:02.850Z,58.90
2017-10-06T00:21:30.613Z,58.80
2017-10-06T00:23:58.305Z,59.40
2017-10-06T00:26:26.847Z,61.20
2017-10-06T00:28:54.592Z,60.70
2017-10-06T00:31:22.285Z,63.40
2017-10-06T00:36:29.163Z,62.00
2017-10-06T00:38:56.846Z,62.10
2017-10-06T00:41:24.534Z,62.80
2017-10-06T00:43:53.113Z,62.70
2017-10-06T00:46:20.803Z,61.90
2017-10-06T00:48:48.497Z,63.10
2017-10-06T00:51:16.261Z,61.80
2017-10-06T00:53:43.947Z,63.40
2017-10-06T00:56:11.643Z,63.70
2017-10-06T00:58:40.365Z,65.50
2017-10-06T01:01:08.056Z,63.40
2017-10-06T01:03:35.761Z,64.00
2017-10-06T01:06:03.505Z,64.30
2017-10-06T01:08:32.163Z,64.40
2017-10-06T01:10:59.849Z,64.80
2017-10-06T01:15:55.273Z,69.10
2017-10-06T01:18:22.952Z,69.50
2017-10-06T01:20:50.710Z,70.90
2017-10-06T01:23:18.403Z,70.10
2017-10-06T01:25:46.100Z,70.90
2017-10-06T01:28:13.874Z,69.90
2017-10-06T01:33:09.281Z,69.70
2017-10-06T01:35:37.868Z,69.20
2017-10-06T01:38:05.549Z,70.50
2017-10-06T01:43:01.784Z,69.60
2017-10-06T01:45:29.483Z,69.80
2017-10-06T01:47:57.174Z,69.50
2017-10-06T01:50:24.947Z,70.10
2017-10-06T01:52:53.576Z,71.60
2017-10-06T01:55:21.288Z,72.20
2017-10-06T01:57:49.061Z,71.70
2017-10-06T02:00:17.727Z,70.90
2017-10-06T02:05:24.632Z,71.30
2017-10-06T02:07:52.319Z,70.40
2017-10-06T02:10:20.010Z,69.60
2017-10-06T02:12:47.798Z,69.80
2017-10-06T02:15:15.492Z,69.90
2017-10-06T02:17:43.182Z,71.40
2017-10-06T02:20:10.942Z,72.50
2017-10-06T02:22:38.644Z,71.90
2017-10-06T02:25:06.338Z,71.30
2017-10-06T02:27:34.093Z,72.90
2017-10-06T02:30:01.798Z,70.50
2017-10-06T02:32:29.485Z,70.20
2017-10-06T02:34:58.353Z,71.00
2017-10-06T02:37:26.057Z,70.70
2017-10-06T02:39:53.746Z,71.90
2017-10-06T02:45:02.361Z,70.60
2017-10-06T02:47:30.136Z,70.70
2017-10-06T02:49:57.826Z,70.80
2017-10-06T02:52:25.525Z,71.10
2017-10-06T02:54:53.286Z,70.60
2017-10-06T02:57:20.978Z,71.10
2017-10-06T02:59:48.695Z,70.80
2017-10-06T03:02:16.473Z,71.90
2017-10-06T03:04:44.170Z,70.70
2017-10-06T03:07:12.814Z,70.20
2017-10-06T03:09:40.556Z,70.70
2017-10-06T03:12:08.245Z,71.90
2017-10-06T03:14:35.949Z,72.50
2017-10-06T03:19:32.404Z,70.90
2017-10-06T03:24:27.853Z,72.50
2017-10-06T03:26:55.552Z,71.40
2017-10-06T03:29:24.193Z,71.10
2017-10-06T03:31:51.971Z,70.80
2017-10-06T03:34:19.657Z,70.60
2017-10-06T03:36:47.357Z,71.30
2017-10-06T03:44:10.611Z,71.70
2017-10-06T03:46:38.355Z,70.30
2017-10-06T03:49:06.047Z,70.60
2017-10-06T03:51:34.553Z,71.10
2017-10-06T03:54:02.325Z,72.00
2017-10-06T03:56:30.018Z,72.50
2017-10-06T03:58:57.706Z,72.50
2017-10-06T04:01:25.453Z,72.00
2017-10-06T04:03:53.152Z,72.20
2017-10-06T04:06:20.842Z,73.40
2017-10-06T04:11:27.702Z,73.10
2017-10-06T04:18:50.856Z,73.40
2017-10-06T04:21:18.602Z,72.80
2017-10-06T04:23:46.287Z,73.60
2017-10-06T04:26:13.977Z,73.10
2017-10-06T04:31:10.166Z,72.30
2017-10-06T04:33:37.850Z,72.40
2017-10-06T04:36:05.621Z,71.90
2017-10-06T04:38:34.123Z,72.50
2017-10-06T04:41:01.809Z,74.20
2017-10-06T04:43:29.584Z,74.20
2017-10-06T04:45:57.282Z,73.90
2017-10-06T04:48:24.961Z,73.40
2017-10-06T04:50:52.714Z,72.60
2017-10-06T04:53:20.408Z,73.00
2017-10-06T04:55:48.100Z,71.90
2017-10-06T04:58:15.826Z,71.80
2017-10-06T05:00:43.524Z,72.10
2017-10-06T05:03:11.207Z,72.10
2017-10-06T05:05:38.958Z,72.80
2017-10-06T05:08:06.644Z,72.60
2017-10-06T05:10:34.336Z,71.60
2017-10-06T05:17:57.474Z,72.30
2017-10-06T05:20:25.226Z,73.20
2017-10-06T05:22:52.914Z,72.80
2017-10-06T05:25:20.628Z,72.90
2017-10-06T05:27:48.367Z,73.60
2017-10-06T05:30:16.061Z,72.60
2017-10-06T05:32:43.753Z,73.20
2017-10-06T05:35:11.501Z,73.30
2017-10-06T05:37:39.190Z,71.70
2017-10-06T05:42:46.133Z,72.20
2017-10-06T05:45:13.817Z,72.20
2017-10-06T05:47:41.502Z,72.50
2017-10-06T05:50:09.344Z,72.20
2017-10-06T05:52:37.021Z,72.50
2017-10-06T05:55:04.707Z,72.80
2017-10-06T05:57:33.277Z,73.30
2017-10-06T06:00:01.813Z,72.90
2017-10-06T06:02:30.325Z,73.40
2017-10-06T06:04:58.100Z,73.50
2017-10-06T06:07:25.766Z,74.00
2017-10-06T06:12:21.211Z,74.30
2017-10-06T06:14:48.918Z,75.20
2017-10-06T06:17:16.606Z,75.40
2017-10-06T06:19:44.355Z,75.00
2017-10-06T06:22:12.045Z,76.30
2017-10-06T06:27:07.497Z,75.40
2017-10-06T06:29:35.189Z,75.60
2017-10-06T06:32:02.881Z,74.80
2017-10-06T06:34:30.633Z,75.60
2017-10-06T06:36:58.329Z,77.20
2017-10-06T06:39:26.013Z,72.90
2017-10-06T06:41:53.785Z,73.20
2017-10-06T06:44:21.483Z,73.20
2017-10-06T06:46:49.185Z,75.70
2017-10-06T06:49:16.939Z,72.20
2017-10-06T06:51:44.617Z,73.40
2017-10-06T06:54:12.275Z,70.80
2017-10-06T06:56:39.980Z,71.20
2017-10-06T06:59:07.641Z,71.50
2017-10-06T07:01:35.307Z,70.10
2017-10-06T07:06:30.714Z,67.50
2017-10-06T07:14:07.206Z,67.50
2017-10-06T07:16:34.861Z,66.50
2017-10-06T07:19:02.612Z,65.30
2017-10-06T07:21:30.274Z,65.00
2017-10-06T07:23:57.932Z,62.20
2017-10-06T07:26:25.653Z,63.90
2017-10-06T07:28:53.330Z,64.10
2017-10-06T07:31:20.983Z,63.80
2017-10-06T07:33:48.723Z,64.90
2017-10-06T07:36:16.366Z,65.20
2017-10-06T07:38:44.026Z,64.10
2017-10-06T07:41:11.742Z,64.10
2017-10-06T07:43:39.404Z,64.30
2017-10-06T07:46:07.073Z,65.00
2017-10-06T07:48:34.795Z,64.00
2017-10-06T07:51:02.463Z,62.50
2017-10-06T07:53:30.122Z,60.60
2017-10-06T07:55:58.846Z,62.50
2017-10-06T07:58:26.516Z,62.10
2017-10-06T08:00:54.179Z,62.90
2017-10-06T08:03:21.903Z,62.40
2017-10-06T08:05:49.575Z,60.90
2017-10-06T08:08:17.235Z,58.80
2017-10-06T08:10:44.977Z,58.20
2017-10-06T08:13:13.483Z,58.30
2017-10-06T08:15:41.137Z,57.80
2017-10-06T08:18:08.858Z,58.80
2017-10-06T08:23:05.048Z,57.80
2017-10-06T08:25:32.788Z,59.00
2017-10-06T08:28:00.453Z,57.70
2017-10-06T08:30:29.076Z,55.50
2017-10-06T08:35:35.944Z,51.80
2017-10-06T08:38:03.653Z,53.90
2017-10-06T08:40:31.311Z,54.50
2017-10-06T08:42:58.973Z,53.60
2017-10-06T08:45:26.698Z,53.50
2017-10-06T08:47:54.362Z,53.30
2017-10-06T08:50:22.026Z,52.40
2017-10-06T08:52:49.770Z,53.40
2017-10-06T08:55:17.428Z,53.10
2017-10-06T08:57:45.129Z,51.30
2017-10-06T09:00:12.864Z,51.20
2017-10-06T09:02:41.350Z,47.60
2017-10-06T09:05:09.011Z,49.50
2017-10-06T09:07:36.747Z,47.80
2017-10-06T09:10:04.409Z,48.80
2017-10-06T09:12:32.074Z,50.60
2017-10-06T09:14:59.789Z,48.20
2017-10-06T09:17:27.502Z,50.70
2017-10-06T09:19:55.167Z,45.50
2017-10-06T09:22:22.922Z,49.90
2017-10-06T09:24:50.571Z,52.30
2017-10-06T09:27:18.241Z,49.50
2017-10-06T09:29:45.958Z,49.50
2017-10-06T09:34:42.048Z,53.40
2017-10-06T09:37:09.777Z,49.80
2017-10-06T09:39:37.441Z,51.30
2017-10-06T09:42:05.104Z,53.30
2017-10-06T09:44:32.826Z,52.90
2017-10-06T09:49:39.664Z,53.00
2017-10-06T09:52:07.327Z,54.60
2017-10-06T09:54:35.011Z,52.50
2017-10-06T09:57:02.734Z,50.00
2017-10-06T10:01:58.093Z,48.50
2017-10-06T10:04:26.771Z,48.70
2017-10-06T10:06:54.433Z,48.50
2017-10-06T10:09:22.094Z,49.50
2017-10-06T10:11:49.810Z,51.00
2017-10-06T10:14:17.470Z,50.10
2017-10-06T10:16:45.133Z,50.30
2017-10-06T10:21:40.511Z,48.70
2017-10-06T10:24:08.168Z,48.30
2017-10-06T10:26:35.915Z,49.10
2017-10-06T10:29:03.582Z,46.10
2017-10-06T10:31:31.242Z,45.80
2017-10-06T10:33:58.973Z,43.50
2017-10-06T10:36:26.634Z,43.70
2017-10-06T10:38:54.291Z,44.60
2017-10-06T10:41:22.022Z,42.80
2017-10-06T10:43:49.680Z,43.00
2017-10-06T10:46:17.342Z,42.10
2017-10-06T10:48:45.076Z,43.00
2017-10-06T10:51:12.739Z,43.00
2017-10-06T10:53:40.406Z,42.60
2017-10-06T10:56:08.154Z,41.90
2017-10-06T10:58:35.790Z,41.10
2017-10-06T11:01:03.457Z,38.30
2017-10-06T11:03:31.178Z,37.60
2017-10-06T11:05:58.836Z,35.80
2017-10-06T11:08:26.511Z,35.40
2017-10-06T11:10:54.259Z,38.00
2017-10-06T11:16:01.102Z,36.20
2017-10-06T11:18:28.758Z,34.30
2017-10-06T11:20:57.249Z,34.60
2017-10-06T11:23:24.998Z,31.10
2017-10-06T11:25:52.661Z,31.80
2017-10-06T11:28:20.329Z,32.20
2017-10-06T11:30:48.052Z,33.90
2017-10-06T11:33:15.717Z,32.10
2017-10-06T11:35:43.370Z,35.60
2017-10-06T11:43:18.519Z,31.30
2017-10-06T11:45:46.177Z,29.10
2017-10-06T11:48:14.669Z,27.70
2017-10-06T11:50:42.411Z,29.50
2017-10-06T11:53:10.081Z,31.20
2017-10-06T11:55:37.739Z,30.20
2017-10-06T11:58:05.469Z,31.10
2017-10-06T12:00:33.132Z,30.00
2017-10-06T12:03:00.794Z,28.50
2017-10-06T12:05:28.514Z,29.10
2017-10-06T12:10:23.848Z,30.70
2017-10-06T12:12:51.575Z,29.20
2017-10-06T12:15:19.236Z,30.00
2017-10-06T12:17:46.897Z,29.50
2017-10-06T12:20:14.614Z,29.80
2017-10-06T12:22:42.271Z,30.30
2017-10-06T12:25:09.925Z,30.00
2017-10-06T12:27:37.649Z,29.50
2017-10-06T12:30:06.258Z,28.90
2017-10-06T12:32:33.914Z,30.20
2017-10-06T12:35:01.632Z,30.60
2017-10-06T12:37:29.302Z,31.30
2017-10-06T12:39:57.721Z,31.70
2017-10-06T12:42:25.448Z,32.50
2017-10-06T12:44:53.098Z,33.10
2017-10-06T12:47:20.849Z,31.60
2017-10-06T12:49:48.578Z,30.90
2017-10-06T12:52:16.238Z,32.70
2017-10-06T12:54:43.977Z,33.00
2017-10-06T12:57:11.706Z,33.40
2017-10-06T12:59:40.321Z,32.00
2017-10-06T13:02:07.986Z,29.60
2017-10-06T13:04:35.706Z,31.10
2017-10-06T13:07:03.362Z,32.40
2017-10-06T13:12:10.209Z,32.20
2017-10-06T13:14:37.865Z,32.20
2017-10-06T13:17:05.538Z,31.30
2017-10-06T13:19:33.322Z,31.50
2017-10-06T13:22:01.015Z,31.90
2017-10-06T13:24:28.678Z,30.90
2017-10-06T13:26:56.395Z,30.60
2017-10-06T13:29:24.052Z,31.50
2017-10-06T13:31:51.711Z,31.00
2017-10-06T13:34:19.437Z,32.20
2017-10-06T13:36:48.051Z,33.40
2017-10-06T13:39:15.722Z,32.50
2017-10-06T13:41:43.453Z,33.80
2017-10-06T13:44:11.135Z,35.60
2017-10-06T13:46:38.793Z,36.00
2017-10-06T13:49:06.508Z,37.30
2017-10-06T13:51:34.174Z,36.20
2017-10-06T13:54:01.831Z,36.10
2017-10-06T13:56:30.369Z,35.70
2017-10-06T13:58:58.035Z,35.90
2017-10-06T14:01:25.713Z,36.00
2017-10-06T14:03:53.450Z,35.90
2017-10-06T14:06:21.120Z,35.10
2017-10-06T14:08:48.799Z,34.00
2017-10-06T14:11:16.517Z,36.10
2017-10-06T14:13:45.043Z,36.00
2017-10-06T14:16:12.739Z,37.20
2017-10-06T14:18:40.494Z,36.10
2017-10-06T14:21:08.157Z,35.30
2017-10-06T14:23:35.861Z,32.90
2017-10-06T14:26:03.591Z,32.40
2017-10-06T14:30:58.906Z,35.00
2017-10-06T14:33:26.648Z,35.60
2017-10-06T14:35:54.315Z,34.10
2017-10-06T14:38:21.971Z,35.90
2017-10-06T14:43:31.771Z,37.00
2017-10-06T14:45:59.506Z,36.40
2017-10-06T14:48:27.179Z,37.60
2017-10-06T14:50:54.825Z,38.40
2017-10-06T14:53:22.545Z,36.80
2017-10-06T14:55:50.212Z,38.60
2017-10-06T14:58:17.869Z,37.40
2017-10-06T15:00:45.584Z,38.20
2017-10-06T15:03:13.246Z,38.50
2017-10-06T15:08:08.661Z,36.80
2017-10-06T15:10:36.318Z,36.80
2017-10-06T15:13:03.965Z,38.00
2017-10-06T15:15:31.706Z,37.70
2017-10-06T15:17:59.366Z,37.50
2017-10-06T15:20:27.022Z,39.50
2017-10-06T15:22:54.748Z,39.60
2017-10-06T15:25:23.274Z,40.60
2017-10-06T15:27:50.939Z,41.40
2017-10-06T15:30:19.670Z,42.00
2017-10-06T15:32:48.174Z,40.80
2017-10-06T15:35:15.841Z,42.00
2017-10-06T15:37:44.405Z,41.30
2017-10-06T15:40:12.073Z,42.40
2017-10-06T15:42:39.738Z,42.40
2017-10-06T15:45:07.468Z,41.80
2017-10-06T15:47:35.966Z,43.50
2017-10-06T15:50:03.629Z,43.20
2017-10-06T15:52:31.383Z,43.40
2017-10-06T15:54:59.042Z,44.40
2017-10-06T15:57:27.657Z,45.60
2017-10-06T15:59:55.384Z,43.60
2017-10-06T16:02:23.085Z,44.70
2017-10-06T16:04:50.742Z,46.80
2017-10-06T16:07:18.479Z,50.40
2017-10-06T16:12:25.318Z,49.30
2017-10-06T16:14:52.975Z,46.90
2017-10-06T16:17:21.473Z,45.20
2017-10-06T16:19:50.030Z,43.50
2017-10-06T16:22:17.683Z,43.30
2017-10-06T16:24:45.358Z,43.50
2017-10-06T16:27:13.091Z,43.60
2017-10-06T16:29:40.763Z,43.50
2017-10-06T16:32:09.257Z,44.30
2017-10-06T16:34:36.993Z,45.30
2017-10-06T16:37:04.660Z,46.20
2017-10-06T16:39:32.331Z,44.20
2017-10-06T16:42:00.080Z,46.20
2017-10-06T16:44:27.721Z,48.50
2017-10-06T16:46:55.392Z,48.60
2017-10-06T16:49:23.130Z,50.80
2017-10-06T16:51:50.795Z,51.40
2017-10-06T16:56:46.180Z,52.20
2017-10-06T16:59:13.841Z,52.10
2017-10-06T17:01:42.462Z,52.00
2017-10-06T17:04:10.190Z,53.60
2017-10-06T17:06:37.847Z,51.00
2017-10-06T17:09:05.518Z,50.10
2017-10-06T17:11:34.074Z,50.60
2017-10-06T17:14:01.726Z,53.10
2017-10-06T17:16:29.412Z,53.60
2017-10-06T17:18:57.135Z,53.60
2017-10-06T17:21:25.622Z,54.30
2017-10-06T17:23:53.293Z,56.00
2017-10-06T17:26:21.830Z,56.60
2017-10-06T17:28:50.337Z,61.50
2017-10-06T17:31:18.835Z,60.90
2017-10-06T17:33:46.565Z,58.50
2017-10-06T17:38:53.400Z,58.70
2017-10-06T17:41:21.946Z,60.10
2017-10-06T17:43:49.614Z,60.20
2017-10-06T17:46:18.148Z,60.20
2017-10-06T17:48:45.798Z,60.70
2017-10-06T17:51:13.453Z,63.00
2017-10-06T17:53:42.030Z,65.80
2017-10-06T17:56:10.427Z,64.60
2017-10-06T18:01:09.976Z,63.60
2017-10-06T18:03:37.633Z,62.90
2017-10-06T18:06:05.333Z,64.90
2017-10-06T18:08:33.063Z,65.10
2017-10-06T18:11:00.733Z,66.70
2017-10-06T18:13:28.391Z,66.00
2017-10-06T18:15:56.140Z,66.70
2017-10-06T18:18:23.820Z,67.30
2017-10-06T18:20:51.514Z,69.90
2017-10-06T18:23:20.210Z,68.80
2017-10-06T18:25:48.731Z,67.50
2017-10-06T18:28:16.414Z,67.40
2017-10-06T18:30:44.122Z,67.80
2017-10-06T18:33:11.780Z,66.90
2017-10-06T18:38:08.028Z,67.10
2017-10-06T18:40:35.730Z,68.50
2017-10-06T18:43:03.380Z,67.60
2017-10-06T18:45:31.096Z,68.50
2017-10-06T18:47:58.772Z,69.50
2017-10-06T18:50:26.435Z,71.00
2017-10-06T18:57:50.522Z,73.70
2017-10-06T19:00:18.263Z,72.50
2017-10-06T19:07:54.911Z,74.80
2017-10-06T19:10:23.381Z,75.30
2017-10-06T19:12:51.419Z,76.00
2017-10-06T19:17:46.709Z,75.60
2017-10-06T19:20:14.488Z,75.50
2017-10-06T19:22:42.148Z,75.30
2017-10-06T19:25:09.801Z,76.80
2017-10-06T19:27:38.601Z,76.40
2017-10-06T19:30:06.373Z,76.60
2017-10-06T19:32:34.017Z,76.70
2017-10-06T19:35:01.752Z,76.30
2017-10-06T19:37:29.405Z,75.90
2017-10-06T19:39:57.058Z,76.10
2017-10-06T19:47:20.128Z,78.60
2017-10-06T19:49:47.857Z,76.40
2017-10-06T19:52:16.448Z,76.10
2017-10-06T19:54:44.109Z,77.00
2017-10-06T19:57:11.841Z,78.10
2017-10-06T19:59:39.498Z,78.20
2017-10-06T20:02:07.175Z,77.70
2017-10-06T20:04:34.928Z,76.90
2017-10-06T20:07:02.580Z,74.80
2017-10-06T20:09:30.329Z,75.90
2017-10-06T20:11:58.070Z,75.60
2017-10-06T20:14:25.726Z,75.50
2017-10-06T20:19:21.116Z,77.40
2017-10-06T20:21:48.773Z,77.20
2017-10-06T20:24:16.457Z,76.40
2017-10-06T20:26:45.144Z,75.60
2017-10-06T20:31:52.815Z,76.30
2017-10-06T20:34:21.305Z,74.20
2017-10-06T20:36:48.959Z,74.80
2017-10-06T20:39:16.693Z,75.90
2017-10-06T20:41:45.352Z,77.00
2017-10-06T20:44:12.976Z,78.50
2017-10-06T20:46:41.691Z,78.40
2017-10-06T20:49:09.363Z,78.10
2017-10-06T20:51:37.020Z,78.00
2017-10-06T20:54:04.809Z,77.40
2017-10-06T20:56:32.460Z,77.40
2017-10-06T20:59:00.140Z,77.00
2017-10-06T21:01:27.885Z,77.90
2017-10-06T21:03:55.540Z,79.00
2017-10-06T21:06:23.194Z,79.50
2017-10-06T21:11:18.596Z,79.60
2017-10-06T21:13:47.279Z,78.60
2017-10-06T21:16:15.001Z,79.60
2017-10-06T21:18:43.629Z,79.60
2017-10-06T21:21:11.292Z,80.00
2017-10-06T21:23:39.039Z,80.40
2017-10-06T21:26:06.701Z,80.70
2017-10-06T21:28:34.386Z,80.50
2017-10-06T21:31:02.101Z,80.90
2017-10-06T21:33:30.584Z,81.60
2017-10-06T21:35:58.277Z,81.80
2017-10-06T21:38:26.015Z,81.60
2017-10-06T21:40:53.682Z,81.40
2017-10-06T21:43:21.350Z,81.60
2017-10-06T21:45:49.070Z,81.10
2017-10-06T21:48:16.729Z,81.60
2017-10-06T21:50:44.391Z,81.00
2017-10-06T21:53:12.121Z,81.30
2017-10-06T21:55:39.770Z,81.30
2017-10-06T22:00:48.599Z,81.60
2017-10-06T22:03:16.249Z,81.30
2017-10-06T22:05:43.914Z,81.30
2017-10-06T22:08:11.634Z,81.00
2017-10-06T22:10:39.293Z,81.20
2017-10-06T22:13:06.932Z,80.90
2017-10-06T22:15:34.671Z,81.40
2017-10-06T22:18:02.329Z,81.50
2017-10-06T22:20:29.977Z,82.40
2017-10-06T22:22:57.692Z,81.90
2017-10-06T22:25:25.345Z,82.30
2017-10-06T22:27:53.003Z,82.40
2017-10-06T22:30:20.727Z,81.70
2017-10-06T22:32:48.388Z,81.10
2017-10-06T22:35:16.059Z,81.80
2017-10-06T22:37:43.771Z,81.40
2017-10-06T22:40:11.435Z,81.60
2017-10-06T22:42:39.094Z,81.50
2017-10-06T22:45:06.804Z,81.00
2017-10-06T22:47:34.464Z,79.80
2017-10-06T22:50:02.121Z,80.10
2017-10-06T22:52:29.830Z,79.80
2017-10-06T22:54:57.478Z,78.80
2017-10-06T22:57:25.136Z,78.60
2017-10-06T22:59:52.843Z,79.30
2017-10-06T23:02:21.455Z,79.00
2017-10-06T23:04:49.106Z,78.90
2017-10-06T23:07:16.827Z,79.10
2017-10-06T23:09:44.482Z,79.60
2017-10-06T23:12:12.134Z,79.60
2017-10-06T23:14:39.901Z,79.60
2017-10-06T23:17:07.555Z,79.10
2017-10-06T23:19:35.203Z,79.10
2017-10-06T23:24:44.985Z,78.00
2017-10-06T23:27:13.368Z,77.80
2017-10-06T23:29:41.059Z,78.10
2017-10-06T23:32:08.713Z,78.40
2017-10-06T23:34:36.444Z,78.20
2017-10-06T23:37:04.105Z,78.30
2017-10-06T23:39:32.721Z,79.00
2017-10-06T23:42:00.444Z,79.80
2017-10-06T23:44:28.929Z,80.20
2017-10-06T23:46:56.597Z,79.90
2017-10-06T23:49:25.269Z,79.40
2017-10-06T23:51:52.920Z,79.70
2017-10-06T23:54:20.574Z,79.70
2017-10-06T23:56:48.286Z,79.30
2017-10-06T23:59:15.938Z,78.20
